X  Fermer Données météorologiques d'aviation de Metar     LGRX Patras Araxos Agamemnon Airport
Température
27°C Température
15°C Point de rosée
48% Humidité



Vent
3 M/S
6 MPH
10 KM/H
5 KTS



50°
NE
Conditions actuelles

Partiellement nuageux Partiellement nuageux
Pression 1010.92 (hPa) - 29.85 (inHg)
Visibilité 6.2 (mile) - 10 (km)
Aéroport
Code de l'aéroport LGRX

Emplacement: Patras Araxos Agamemnon Airport
Distance: 16 (km)

Metar:
LGRX 110420Z 05005KT 9999 FEW030 SCT070 27/15 Q1011

Temps: 11-08-2022 07:20 EEST